createdAt,value
2019-01-23T00:02:26.753Z,70.50
2019-01-23T00:04:58.531Z,75.53
2019-01-23T00:07:28.964Z,58.63
2019-01-23T00:09:59.548Z,65.50
2019-01-23T00:12:30.138Z,60.60
2019-01-23T00:15:00.621Z,45.20
2019-01-23T00:17:30.927Z,63.23
2019-01-23T00:20:01.360Z,57.67
2019-01-23T00:22:32.065Z,56.37
2019-01-23T00:25:02.443Z,63.80
2019-01-23T00:27:32.953Z,63.53
2019-01-23T00:30:03.378Z,58.97
2019-01-23T00:32:33.862Z,43.57
2019-01-23T00:35:04.528Z,73.23
2019-01-23T00:37:34.880Z,58.80
2019-01-23T00:40:06.070Z,56.93
2019-01-23T00:42:36.631Z,40.93
2019-01-23T00:45:08.005Z,53.03
2019-01-23T00:47:38.585Z,62.30
2019-01-23T00:50:09.539Z,47.70
2019-01-23T00:52:40.168Z,55.60
2019-01-23T00:55:12.701Z,52.50
2019-01-23T00:57:43.206Z,42.97
2019-01-23T01:00:16.939Z,49.07
2019-01-23T01:02:47.460Z,56.97
2019-01-23T01:05:18.613Z,53.97
2019-01-23T01:07:49.353Z,48.27
2019-01-23T01:10:19.689Z,49.57
2019-01-23T01:12:50.314Z,46.33
2019-01-23T01:15:20.969Z,51.27
2019-01-23T01:17:51.649Z,59.80
2019-01-23T01:20:22.141Z,39.30
2019-01-23T01:22:52.625Z,58.73
2019-01-23T01:25:23.128Z,37.00
2019-01-23T01:27:53.423Z,48.97
2019-01-23T01:30:24.847Z,44.83
2019-01-23T01:32:55.093Z,46.57
2019-01-23T01:35:25.648Z,56.37
2019-01-23T01:37:55.896Z,50.97
2019-01-23T01:40:26.235Z,44.73
2019-01-23T01:42:56.756Z,48.83
2019-01-23T01:45:27.115Z,44.60
2019-01-23T01:47:57.507Z,41.77
2019-01-23T01:50:28.216Z,46.47
2019-01-23T01:52:58.886Z,29.87
2019-01-23T01:55:29.304Z,24.53
2019-01-23T01:58:01.799Z,45.47
2019-01-23T02:00:32.326Z,37.63
2019-01-23T02:03:03.703Z,43.23
2019-01-23T02:05:34.176Z,39.40
2019-01-23T02:08:04.470Z,38.20
2019-01-23T02:10:35.060Z,45.87
2019-01-23T02:13:05.497Z,42.40
2019-01-23T02:15:35.893Z,34.23
2019-01-23T02:18:06.228Z,44.23
2019-01-23T02:20:38.364Z,45.33
2019-01-23T02:23:09.187Z,42.30
2019-01-23T02:25:39.522Z,40.83
2019-01-23T02:28:10.007Z,41.80
2019-01-23T02:30:40.840Z,40.43
2019-01-23T02:33:11.354Z,41.60
2019-01-23T02:35:42.194Z,36.63
2019-01-23T02:38:12.615Z,39.13
2019-01-23T02:40:42.849Z,41.70
2019-01-23T02:43:13.245Z,48.43
2019-01-23T02:45:43.816Z,26.70
2019-01-23T02:48:14.246Z,39.97
2019-01-23T02:50:44.923Z,47.57
2019-01-23T02:53:15.923Z,42.53
2019-01-23T02:55:46.470Z,44.47
2019-01-23T02:58:18.006Z,42.33
2019-01-23T03:00:48.358Z,46.83
2019-01-23T03:03:18.958Z,41.13
2019-01-23T03:05:49.595Z,43.30
2019-01-23T03:08:20.575Z,48.30
2019-01-23T03:10:51.606Z,44.83
2019-01-23T03:13:22.767Z,44.37
2019-01-23T03:15:54.505Z,47.03
2019-01-23T03:18:24.982Z,39.30
2019-01-23T03:20:55.649Z,46.13
2019-01-23T03:23:26.297Z,42.77
2019-01-23T03:25:56.789Z,44.20
2019-01-23T03:28:27.360Z,36.97
2019-01-23T03:30:58.651Z,33.27
2019-01-23T03:33:29.212Z,42.20
2019-01-23T03:35:59.620Z,34.70
2019-01-23T03:38:30.445Z,42.70
2019-01-23T03:41:00.847Z,38.70
2019-01-23T03:43:31.399Z,43.20
2019-01-23T03:46:01.814Z,33.53
2019-01-23T03:48:32.576Z,42.20
2019-01-23T03:51:03.030Z,37.47
2019-01-23T03:53:33.636Z,37.00
2019-01-23T03:56:04.259Z,35.97
2019-01-23T03:58:34.651Z,39.33
2019-01-23T04:01:05.163Z,37.57
2019-01-23T04:03:35.762Z,38.43
2019-01-23T04:06:06.272Z,26.57
2019-01-23T04:08:36.681Z,36.77
2019-01-23T04:11:07.354Z,29.13
2019-01-23T04:13:37.820Z,29.60
2019-01-23T04:16:08.164Z,26.10
2019-01-23T04:18:38.725Z,34.33
2019-01-23T04:21:09.108Z,30.40
2019-01-23T04:23:39.868Z,31.03
2019-01-23T04:26:10.297Z,31.17
2019-01-23T04:28:40.982Z,31.10
2019-01-23T04:31:11.544Z,25.40
2019-01-23T04:33:43.012Z,27.13
2019-01-23T04:36:13.771Z,30.27
2019-01-23T04:38:44.128Z,24.63
2019-01-23T04:41:14.693Z,29.73
2019-01-23T04:43:45.257Z,25.00
2019-01-23T04:46:15.688Z,29.97
2019-01-23T04:48:45.980Z,31.97
2019-01-23T04:51:35.284Z,28.80
2019-01-23T04:54:08.582Z,29.77
2019-01-23T04:56:39.212Z,27.47
2019-01-23T04:59:09.456Z,28.47
2019-01-23T05:01:39.815Z,30.40
2019-01-23T05:04:10.315Z,31.63
2019-01-23T05:06:42.272Z,33.40
2019-01-23T05:09:13.982Z,33.00
2019-01-23T05:11:44.600Z,30.90
2019-01-23T05:14:15.302Z,33.37
2019-01-23T05:16:45.562Z,32.70
2019-01-23T05:19:15.912Z,34.40
2019-01-23T05:21:46.553Z,33.93
2019-01-23T05:24:17.108Z,37.40
2019-01-23T05:26:47.730Z,35.30
2019-01-23T05:29:18.141Z,33.60
2019-01-23T05:31:48.564Z,31.37
2019-01-23T05:34:19.112Z,31.53
2019-01-23T05:36:49.413Z,31.40
2019-01-23T05:39:19.902Z,28.20
2019-01-23T05:41:50.431Z,32.03
2019-01-23T05:44:21.003Z,29.67
2019-01-23T05:46:51.374Z,30.73
2019-01-23T05:49:22.032Z,31.70
2019-01-23T05:51:52.360Z,28.23
2019-01-23T05:54:22.978Z,31.70
2019-01-23T05:56:53.457Z,25.17
2019-01-23T05:59:23.810Z,29.27
2019-01-23T06:01:54.734Z,29.20
2019-01-23T06:04:25.371Z,26.47
2019-01-23T06:06:56.087Z,26.80
2019-01-23T06:09:26.796Z,32.07
2019-01-23T06:11:57.428Z,32.97
2019-01-23T06:14:27.898Z,34.67
2019-01-23T06:16:58.204Z,32.63
2019-01-23T06:19:28.503Z,32.57
2019-01-23T06:21:58.801Z,32.23
2019-01-23T06:24:29.289Z,32.83
2019-01-23T06:26:59.890Z,33.87
2019-01-23T06:29:30.244Z,35.27
2019-01-23T06:32:00.923Z,38.77
2019-01-23T06:34:31.426Z,38.87
2019-01-23T06:37:01.830Z,30.13
2019-01-23T06:39:32.314Z,34.33
2019-01-23T06:42:02.950Z,25.17
2019-01-23T06:44:33.262Z,34.70
2019-01-23T06:47:03.876Z,34.67
2019-01-23T06:49:34.372Z,21.83
2019-01-23T06:52:04.956Z,31.70
2019-01-23T06:54:35.335Z,36.67
2019-01-23T06:57:05.655Z,33.20
2019-01-23T06:59:36.222Z,28.80
2019-01-23T07:02:06.530Z,31.20
2019-01-23T07:04:37.166Z,30.20
2019-01-23T07:07:08.120Z,31.57
2019-01-23T07:09:38.919Z,33.53
2019-01-23T07:12:09.391Z,29.13
2019-01-23T07:14:39.912Z,26.73
2019-01-23T07:17:10.235Z,28.27
2019-01-23T07:19:40.742Z,30.23
2019-01-23T07:22:11.211Z,19.53
2019-01-23T07:24:41.471Z,25.70
2019-01-23T07:27:11.960Z,30.40
2019-01-23T07:29:42.619Z,23.87
2019-01-23T07:32:13.049Z,17.40
2019-01-23T07:34:43.532Z,31.50
2019-01-23T07:37:13.971Z,30.20
2019-01-23T07:39:45.031Z,28.27
2019-01-23T07:42:15.989Z,23.80
2019-01-23T07:44:46.258Z,30.80
2019-01-23T07:47:16.800Z,31.33
2019-01-23T07:49:47.541Z,32.20
2019-01-23T07:52:17.894Z,23.03
2019-01-23T07:54:48.498Z,29.20
2019-01-23T07:57:18.954Z,29.43
2019-01-23T07:59:49.736Z,29.03
2019-01-23T08:02:20.162Z,25.70
2019-01-23T08:04:50.604Z,21.33
2019-01-23T08:07:20.938Z,27.83
2019-01-23T08:09:51.302Z,29.77
2019-01-23T08:12:21.996Z,20.27
2019-01-23T08:14:52.693Z,24.87
2019-01-23T08:17:23.956Z,25.33
2019-01-23T08:19:54.355Z,24.47
2019-01-23T08:22:25.897Z,19.87
2019-01-23T08:24:56.428Z,27.03
2019-01-23T08:27:27.160Z,26.30
2019-01-23T08:29:57.809Z,28.63
2019-01-23T08:32:28.532Z,29.70
2019-01-23T08:34:59.092Z,25.37
2019-01-23T08:37:30.261Z,31.17
2019-01-23T08:40:00.696Z,26.40
2019-01-23T08:42:31.117Z,23.43
2019-01-23T08:45:01.447Z,31.83
2019-01-23T08:47:31.997Z,24.47
2019-01-23T08:50:04.531Z,30.60
2019-01-23T08:52:35.135Z,30.63
2019-01-23T08:55:06.059Z,26.93
2019-01-23T08:57:36.585Z,25.70
2019-01-23T09:00:08.069Z,28.47
2019-01-23T09:02:38.571Z,25.53
2019-01-23T09:05:09.467Z,26.63
2019-01-23T09:07:40.097Z,25.83
2019-01-23T09:10:13.768Z,26.90
2019-01-23T09:12:45.268Z,18.17
2019-01-23T09:15:16.037Z,26.00
2019-01-23T09:17:46.631Z,26.97
2019-01-23T09:20:18.014Z,26.33
2019-01-23T09:22:48.703Z,26.67
2019-01-23T09:25:20.989Z,28.20
2019-01-23T09:27:51.620Z,21.60
2019-01-23T09:30:25.236Z,19.80
2019-01-23T09:33:38.875Z,25.37
2019-01-23T09:36:34.801Z,20.87
2019-01-23T09:39:55.375Z,21.83
2019-01-23T09:42:43.369Z,28.80
2019-01-23T09:45:43.732Z,26.67
2019-01-23T09:48:58.849Z,28.53
2019-01-23T09:52:05.262Z,27.03
2019-01-23T09:54:35.737Z,30.47
2019-01-23T09:57:06.565Z,29.07
2019-01-23T09:59:37.513Z,27.63
2019-01-23T10:02:08.276Z,22.27
2019-01-23T10:04:38.883Z,28.20
2019-01-23T10:07:09.261Z,29.80
2019-01-23T10:09:39.740Z,27.63
2019-01-23T10:12:10.369Z,27.93
2019-01-23T10:14:40.909Z,21.43
2019-01-23T10:17:11.779Z,26.00
2019-01-23T10:19:42.912Z,28.20
2019-01-23T10:22:14.838Z,23.00
2019-01-23T10:24:45.776Z,24.03
2019-01-23T10:27:16.715Z,27.63
2019-01-23T10:29:47.647Z,27.17
2019-01-23T10:32:18.858Z,26.23
2019-01-23T10:34:49.713Z,22.33
2019-01-23T10:37:20.677Z,31.03
2019-01-23T10:39:52.361Z,29.37
2019-01-23T10:42:23.326Z,27.13
2019-01-23T10:44:54.405Z,26.23
2019-01-23T10:47:25.475Z,30.40
2019-01-23T10:49:57.357Z,25.07
2019-01-23T10:52:28.365Z,26.00
2019-01-23T10:54:59.420Z,27.17
2019-01-23T10:57:30.502Z,30.73
2019-01-23T11:00:01.464Z,25.43
2019-01-23T11:02:32.681Z,26.30
2019-01-23T11:05:03.789Z,23.87
2019-01-23T11:07:34.747Z,28.57
2019-01-23T11:10:06.951Z,25.97
2019-01-23T11:12:37.965Z,28.97
2019-01-23T11:15:08.906Z,28.13
2019-01-23T11:17:39.971Z,27.57
2019-01-23T11:20:13.430Z,28.17
2019-01-23T11:22:44.387Z,28.27
2019-01-23T11:25:15.340Z,28.23
2019-01-23T11:27:46.580Z,25.83
2019-01-23T11:30:20.442Z,28.10
2019-01-23T11:32:51.545Z,29.43
2019-01-23T11:35:22.628Z,30.37
2019-01-23T11:37:53.762Z,30.47
2019-01-23T11:40:26.960Z,31.10
2019-01-23T11:42:57.957Z,31.70
2019-01-23T11:45:29.612Z,29.73
2019-01-23T11:48:00.673Z,27.93
2019-01-23T11:50:31.565Z,26.53
2019-01-23T11:53:02.550Z,25.87
2019-01-23T11:55:33.695Z,27.40
2019-01-23T11:58:04.652Z,26.67
2019-01-23T12:00:36.499Z,28.67
2019-01-23T12:03:07.412Z,25.60
2019-01-23T12:05:38.328Z,30.53
2019-01-23T12:08:09.245Z,25.23
2019-01-23T12:10:40.088Z,28.07
2019-01-23T12:13:11.072Z,29.50
2019-01-23T12:15:42.253Z,30.83
2019-01-23T12:18:13.466Z,24.37
2019-01-23T12:20:44.413Z,29.20
2019-01-23T12:23:15.321Z,27.47
2019-01-23T12:25:46.319Z,29.17
2019-01-23T12:28:17.153Z,28.13
2019-01-23T12:30:48.130Z,29.00
2019-01-23T12:33:19.036Z,27.83
2019-01-23T12:35:49.995Z,27.37
2019-01-23T12:38:20.847Z,27.83
2019-01-23T12:40:51.762Z,23.07
2019-01-23T12:43:22.632Z,23.60
2019-01-23T12:45:53.560Z,26.27
2019-01-23T12:48:24.348Z,30.10
2019-01-23T12:50:55.214Z,29.20
2019-01-23T12:53:26.096Z,29.83
2019-01-23T12:55:57.107Z,27.20
2019-01-23T12:58:28.081Z,29.47
2019-01-23T13:00:58.972Z,25.83
2019-01-23T13:03:29.877Z,27.13
2019-01-23T13:06:00.692Z,28.33
2019-01-23T13:08:31.622Z,27.40
2019-01-23T13:11:02.477Z,26.27
2019-01-23T13:13:33.388Z,23.87
2019-01-23T13:16:04.349Z,23.20
2019-01-23T13:18:35.418Z,23.80
2019-01-23T13:21:06.348Z,25.70
2019-01-23T13:23:37.227Z,18.87
2019-01-23T13:26:08.185Z,17.40
2019-01-23T13:28:40.383Z,25.63
2019-01-23T13:31:11.288Z,20.43
2019-01-23T13:33:42.243Z,22.47
2019-01-23T13:36:13.185Z,26.90
2019-01-23T13:38:44.120Z,23.33
2019-01-23T13:41:15.080Z,24.23
2019-01-23T13:43:46.026Z,26.27
2019-01-23T13:46:17.041Z,23.87
2019-01-23T13:48:47.827Z,26.13
2019-01-23T13:51:18.747Z,25.37
2019-01-23T13:53:49.686Z,26.70
2019-01-23T13:56:20.576Z,24.43
2019-01-23T13:58:51.638Z,24.33
2019-01-23T14:01:22.456Z,25.07
2019-01-23T14:03:53.420Z,24.80
2019-01-23T14:06:24.544Z,25.20
2019-01-23T14:08:55.798Z,24.17
2019-01-23T14:11:26.993Z,20.80
2019-01-23T14:13:57.898Z,20.23
2019-01-23T14:16:28.712Z,25.13
2019-01-23T14:18:59.930Z,24.27
2019-01-23T14:21:30.922Z,29.70
2019-01-23T14:24:01.911Z,22.20
2019-01-23T14:26:32.795Z,27.60
2019-01-23T14:29:03.831Z,25.93
2019-01-23T14:31:34.888Z,23.20
2019-01-23T14:34:05.811Z,21.57
2019-01-23T14:36:36.776Z,23.60
2019-01-23T14:39:09.200Z,22.07
2019-01-23T14:41:40.439Z,25.93
2019-01-23T14:44:11.463Z,22.97
2019-01-23T14:46:42.336Z,20.37
2019-01-23T14:49:13.174Z,22.47
2019-01-23T14:51:44.014Z,21.47
2019-01-23T14:54:14.898Z,23.10
2019-01-23T14:56:45.838Z,16.10
2019-01-23T14:59:16.847Z,25.53
2019-01-23T15:01:48.010Z,18.73
2019-01-23T15:04:19.357Z,18.87
2019-01-23T15:06:50.077Z,23.13
2019-01-23T15:09:22.157Z,24.97
2019-01-23T15:11:53.166Z,27.60
2019-01-23T15:14:24.238Z,24.93
2019-01-23T15:16:55.165Z,20.20
2019-01-23T15:19:26.260Z,21.60
2019-01-23T15:21:57.031Z,15.50
2019-01-23T15:24:27.762Z,27.47
2019-01-23T15:26:58.590Z,18.10
2019-01-23T15:29:29.593Z,18.47
2019-01-23T15:32:00.573Z,23.10
2019-01-23T15:34:32.595Z,23.70
2019-01-23T15:37:04.516Z,20.50
2019-01-23T15:39:35.331Z,24.50
2019-01-23T15:42:06.314Z,26.13
2019-01-23T15:44:37.214Z,22.97
2019-01-23T15:47:08.194Z,19.97
2019-01-23T15:49:39.218Z,23.23
2019-01-23T15:52:10.134Z,26.63
2019-01-23T15:54:40.802Z,27.13
2019-01-23T15:57:11.812Z,27.20
2019-01-23T15:59:42.689Z,28.47
2019-01-23T16:02:13.766Z,29.07
2019-01-23T16:04:44.655Z,28.93
2019-01-23T16:07:15.852Z,25.63
2019-01-23T16:09:46.928Z,26.67
2019-01-23T16:12:17.772Z,26.63
2019-01-23T16:14:48.564Z,28.80
2019-01-23T16:17:19.466Z,26.60
2019-01-23T16:19:50.422Z,28.73
2019-01-23T16:22:21.433Z,27.67
2019-01-23T16:24:52.318Z,22.40
2019-01-23T16:27:23.281Z,29.03
2019-01-23T16:29:54.210Z,23.83
2019-01-23T16:32:31.276Z,25.30
2019-01-23T16:34:57.664Z,24.67
2019-01-23T16:37:28.483Z,21.80
2019-01-23T16:39:59.396Z,23.60
2019-01-23T16:42:30.340Z,26.30
2019-01-23T16:45:01.466Z,20.83
2019-01-23T16:47:32.538Z,19.73
2019-01-23T16:50:03.450Z,17.53
2019-01-23T16:52:34.292Z,27.27
2019-01-23T16:55:06.633Z,23.30
2019-01-23T16:57:37.617Z,25.10
2019-01-23T17:00:09.939Z,28.43
2019-01-23T17:02:41.117Z,28.10
2019-01-23T17:05:14.805Z,26.00
2019-01-23T17:07:45.647Z,28.90
2019-01-23T17:10:18.157Z,32.90
2019-01-23T17:12:48.978Z,31.20
2019-01-23T17:15:19.882Z,29.23
2019-01-23T17:17:51.038Z,27.43
2019-01-23T17:20:24.129Z,28.67
2019-01-23T17:22:55.003Z,23.67
2019-01-23T17:25:25.937Z,26.60
2019-01-23T17:27:56.694Z,25.53
2019-01-23T17:30:28.285Z,24.03
2019-01-23T17:32:59.271Z,24.83
2019-01-23T17:35:30.219Z,24.90
2019-01-23T17:38:01.204Z,20.73
2019-01-23T17:40:32.266Z,26.80
2019-01-23T17:43:03.261Z,20.60
2019-01-23T17:45:36.313Z,27.07
2019-01-23T17:48:08.625Z,20.53
2019-01-23T17:50:39.337Z,24.70
2019-01-23T17:53:09.688Z,24.17
2019-01-23T17:55:40.862Z,24.00
2019-01-23T17:58:13.451Z,23.17
2019-01-23T18:00:54.805Z,25.10
2019-01-23T18:03:25.350Z,27.27
2019-01-23T18:05:55.846Z,29.60
2019-01-23T18:08:26.536Z,25.03
2019-01-23T18:10:56.820Z,23.17
2019-01-23T18:13:27.256Z,26.30
2019-01-23T18:16:03.392Z,28.07
2019-01-23T18:18:33.995Z,24.50
2019-01-23T18:21:04.407Z,19.07
2019-01-23T18:23:34.859Z,21.97
2019-01-23T18:26:05.459Z,27.23
2019-01-23T18:28:35.768Z,20.13
2019-01-23T18:31:36.290Z,22.83
2019-01-23T18:34:32.968Z,20.40
2019-01-23T18:37:51.206Z,23.47
2019-01-23T18:41:02.041Z,23.80
2019-01-23T18:44:18.380Z,22.10
2019-01-23T18:47:01.480Z,28.37
2019-01-23T18:50:07.957Z,28.10
2019-01-23T18:52:38.372Z,24.37
2019-01-23T18:55:11.311Z,27.03
2019-01-23T18:57:41.805Z,26.23
2019-01-23T19:00:16.360Z,19.03
2019-01-23T19:02:46.888Z,20.53
2019-01-23T19:05:18.529Z,25.60
2019-01-23T19:07:50.489Z,25.73
2019-01-23T19:10:20.973Z,25.77
2019-01-23T19:12:51.216Z,26.43
2019-01-23T19:15:21.600Z,26.47
2019-01-23T19:17:52.030Z,21.83
2019-01-23T19:20:22.476Z,27.37
2019-01-23T19:22:53.776Z,24.23
2019-01-23T19:25:24.175Z,22.03
2019-01-23T19:27:54.928Z,16.63
2019-01-23T19:30:25.280Z,23.07
2019-01-23T19:32:55.945Z,24.10
2019-01-23T19:35:26.584Z,23.67
2019-01-23T19:37:57.020Z,19.67
2019-01-23T19:40:29.576Z,25.67
2019-01-23T19:43:00.081Z,23.30
2019-01-23T19:45:30.584Z,27.27
2019-01-23T19:48:00.989Z,23.27
2019-01-23T19:50:31.639Z,26.40
2019-01-23T19:53:01.874Z,23.87
2019-01-23T19:55:32.466Z,25.23
2019-01-23T19:58:04.509Z,25.10
2019-01-23T20:00:35.137Z,28.07
2019-01-23T20:03:05.960Z,24.07
2019-01-23T20:05:36.486Z,20.17
2019-01-23T20:08:06.850Z,17.90
2019-01-23T20:10:37.497Z,20.53
2019-01-23T20:13:08.182Z,26.27
2019-01-23T20:15:38.428Z,22.63
2019-01-23T20:18:10.410Z,24.07
2019-01-23T20:20:41.015Z,26.07
2019-01-23T20:23:11.601Z,21.10
2019-01-23T20:25:41.942Z,21.00
2019-01-23T20:28:13.690Z,21.03
2019-01-23T20:30:45.252Z,23.80
2019-01-23T20:33:16.694Z,14.13
2019-01-23T20:35:47.212Z,23.93
2019-01-23T20:38:17.447Z,17.80
2019-01-23T20:40:47.823Z,24.53
2019-01-23T20:43:18.321Z,17.53
2019-01-23T20:45:48.627Z,24.97
2019-01-23T20:48:18.958Z,22.80
2019-01-23T20:50:49.251Z,19.53
2019-01-23T20:53:20.005Z,23.00
2019-01-23T20:55:50.381Z,23.30
2019-01-23T20:58:20.884Z,20.40
2019-01-23T21:00:51.272Z,23.80
2019-01-23T21:03:21.732Z,20.43
2019-01-23T21:05:53.077Z,23.47
2019-01-23T21:08:23.560Z,26.77
2019-01-23T21:10:54.167Z,26.33
2019-01-23T21:13:24.671Z,23.00
2019-01-23T21:15:55.009Z,23.00
2019-01-23T21:18:25.499Z,26.30
2019-01-23T21:20:56.091Z,27.53
2019-01-23T21:23:26.797Z,20.70
2019-01-23T21:25:57.108Z,23.70
2019-01-23T21:28:27.516Z,23.50
2019-01-23T21:30:58.473Z,27.47
2019-01-23T21:33:28.901Z,25.60
2019-01-23T21:35:59.404Z,25.13
2019-01-23T21:38:29.895Z,25.87
2019-01-23T21:41:00.194Z,27.23
2019-01-23T21:43:31.795Z,25.73
2019-01-23T21:46:02.233Z,21.53
2019-01-23T21:48:32.855Z,25.93
2019-01-23T21:51:03.489Z,19.93
2019-01-23T21:53:34.053Z,25.47
2019-01-23T21:56:04.533Z,27.33
2019-01-23T21:58:35.147Z,26.07
2019-01-23T22:01:05.889Z,27.00
2019-01-23T22:03:36.436Z,21.47
2019-01-23T22:06:07.062Z,25.90
2019-01-23T22:08:37.489Z,21.93
2019-01-23T22:11:08.204Z,27.50
2019-01-23T22:13:39.017Z,25.70
2019-01-23T22:16:09.417Z,25.00
2019-01-23T22:18:39.925Z,24.00
2019-01-23T22:21:10.255Z,27.80
2019-01-23T22:23:40.654Z,25.63
2019-01-23T22:26:10.870Z,24.47
2019-01-23T22:28:41.429Z,25.53
2019-01-23T22:31:11.713Z,23.60
2019-01-23T22:33:42.131Z,23.80
2019-01-23T22:36:12.535Z,24.13
2019-01-23T22:38:43.017Z,24.27
2019-01-23T22:41:13.845Z,24.50
2019-01-23T22:43:44.275Z,26.60
2019-01-23T22:46:14.769Z,27.43
2019-01-23T22:48:45.269Z,25.90
2019-01-23T22:51:15.524Z,23.70
2019-01-23T22:53:45.975Z,26.60
2019-01-23T22:56:16.347Z,28.80
2019-01-23T22:58:46.734Z,25.93
2019-01-23T23:01:26.235Z,25.40
2019-01-23T23:04:02.966Z,27.77
2019-01-23T23:06:28.737Z,26.67
2019-01-23T23:09:00.139Z,27.50
2019-01-23T23:11:30.475Z,23.33
2019-01-23T23:14:01.030Z,22.93
2019-01-23T23:16:31.434Z,23.13
2019-01-23T23:19:01.855Z,25.97
2019-01-23T23:21:33.999Z,25.07
2019-01-23T23:24:04.384Z,26.20
2019-01-23T23:26:35.185Z,24.07
2019-01-23T23:29:07.054Z,23.57
2019-01-23T23:31:37.430Z,26.47
2019-01-23T23:34:10.147Z,22.73
2019-01-23T23:36:40.091Z,21.23
2019-01-23T23:39:10.625Z,24.57
2019-01-23T23:41:41.062Z,17.17
2019-01-23T23:44:11.642Z,24.63
2019-01-23T23:46:42.155Z,15.67
2019-01-23T23:49:12.636Z,19.90
2019-01-23T23:51:43.247Z,20.40
2019-01-23T23:54:13.971Z,25.33
2019-01-23T23:56:44.769Z,23.37
2019-01-23T23:59:15.586Z,24.57
